Laverlochere, Canada
Current Conditions -  °F | °C
As of 10:00 PM on Saturday 22 Nov 2014 (Local Time) from CYXR Reporting Station
Overcast Overcast  
Wind Chill: 30°   Ceiling: 5500
Heat Index: 36°   Visibility: 8mi
Dew Point: 32°   Wind: 7mph
Humidity: 87%   Direction: 230°SW
Pressure: 29.74"   Gusts: NA
Location:  47.42°N, 79.28°W
Report Text: CYXR 230300Z AUTO 23006KT 8SM OVC055 02/M00 A2974 RMK SLP082
Loading
Personal Weather Stations






























Interactive Weather Map New forecast layout! Learn more

10-Day Weather Forecast

Advertisements
Track Severe Weather on mobile